createdAt,value
2018-09-21T00:00:23.663Z,22.9
2018-09-21T00:01:13.721Z,22.9
2018-09-21T00:02:04.107Z,22.9
2018-09-21T00:02:53.824Z,22.9
2018-09-21T00:03:43.022Z,22.9
2018-09-21T00:04:34.249Z,22.9
2018-09-21T00:05:24.542Z,22.9
2018-09-21T00:06:14.385Z,22.9
2018-09-21T00:07:03.559Z,22.9
2018-09-21T00:07:54.516Z,22.9
2018-09-21T00:08:44.274Z,22.9
2018-09-21T00:09:34.443Z,22.9
2018-09-21T00:10:24.529Z,22.9
2018-09-21T00:11:14.756Z,22.9
2018-09-21T00:12:03.425Z,22.9
2018-09-21T00:12:54.631Z,22.9
2018-09-21T00:13:44.362Z,22.9
2018-09-21T00:14:34.703Z,22.9
2018-09-21T00:15:24.952Z,22.9
2018-09-21T00:16:14.565Z,22.9
2018-09-21T00:17:04.613Z,22.9
2018-09-21T00:17:54.384Z,22.9
2018-09-21T00:56:26.808Z,22.7
2018-09-21T00:57:17.315Z,22.7
2018-09-21T00:58:07.640Z,22.7
2018-09-21T00:58:57.165Z,22.7
2018-09-21T00:59:47.458Z,22.7
2018-09-21T01:00:37.585Z,22.7
2018-09-21T01:01:28.440Z,22.7
2018-09-21T01:02:17.702Z,22.7
2018-09-21T01:03:07.815Z,22.7
2018-09-21T01:03:58.088Z,22.6
2018-09-21T01:04:47.622Z,22.6
2018-09-21T01:05:37.645Z,22.6
2018-09-21T01:06:27.697Z,22.6
2018-09-21T01:07:17.190Z,22.6
2018-09-21T01:08:08.158Z,22.6
2018-09-21T01:08:57.917Z,22.6
2018-09-21T01:09:48.277Z,22.6
2018-09-21T01:10:38.062Z,22.6
2018-09-21T01:11:28.892Z,22.6
2018-09-21T01:12:18.726Z,22.6
2018-09-21T01:13:08.235Z,22.6
2018-09-21T01:13:58.561Z,22.6
2018-09-21T01:14:48.930Z,22.6
2018-09-21T01:15:38.687Z,22.6
2018-09-21T01:16:28.692Z,22.6
2018-09-21T01:17:18.211Z,22.6
2018-09-21T01:18:08.874Z,22.6
2018-09-21T01:18:58.476Z,22.6
2018-09-21T01:19:48.140Z,22.6
2018-09-21T01:20:39.332Z,22.6
2018-09-21T01:21:28.789Z,22.6
2018-09-21T01:22:19.494Z,22.6
2018-09-21T01:23:08.959Z,22.6
2018-09-21T01:23:58.471Z,22.6
2018-09-21T01:24:49.384Z,22.5
2018-09-21T01:25:39.436Z,22.5
2018-09-21T01:26:29.751Z,22.5
2018-09-21T01:27:19.011Z,22.5
2018-09-21T01:28:09.356Z,22.5
2018-09-21T01:28:59.653Z,22.5
2018-09-21T01:29:49.758Z,22.5
2018-09-21T01:30:39.253Z,22.5
2018-09-21T01:31:29.573Z,22.5
2018-09-21T01:32:20.473Z,22.5
2018-09-21T01:33:09.721Z,22.5
2018-09-21T01:34:00.082Z,22.5
2018-09-21T01:34:49.859Z,22.4
2018-09-21T01:35:40.230Z,22.4
2018-09-21T01:36:30.576Z,22.4
2018-09-21T01:37:20.271Z,22.4
2018-09-21T01:38:10.118Z,22.4
2018-09-21T01:39:00.713Z,22.4
2018-09-21T01:39:50.522Z,22.4
2018-09-21T01:40:40.593Z,22.4
2018-09-21T01:41:30.058Z,22.4
2018-09-21T01:42:21.205Z,22.4
2018-09-21T01:43:10.456Z,22.4
2018-09-21T01:44:00.288Z,22.4
2018-09-21T01:44:50.858Z,22.4
2018-09-21T01:45:40.662Z,22.4
2018-09-21T01:46:31.250Z,22.4
2018-09-21T01:47:21.145Z,22.4
2018-09-21T01:48:11.379Z,22.4
2018-09-21T01:49:00.695Z,22.4
2018-09-21T01:49:50.995Z,22.4
2018-09-21T01:50:40.905Z,22.4
2018-09-21T01:51:30.792Z,22.4
2018-09-21T01:52:21.684Z,22.4
2018-09-21T01:53:11.814Z,22.3
2018-09-21T01:54:01.551Z,22.3
2018-09-21T01:54:51.296Z,22.3
2018-09-21T01:55:41.440Z,22.3
2018-09-21T01:56:31.740Z,22.3
2018-09-21T01:57:20.985Z,22.3
2018-09-21T01:58:11.331Z,22.3
2018-09-21T01:59:01.635Z,22.3
2018-09-21T01:59:51.984Z,22.3
2018-09-21T02:00:42.060Z,22.3
2018-09-21T02:01:31.821Z,22.3
2018-09-21T02:02:21.888Z,22.3
2018-09-21T02:03:12.549Z,22.3
2018-09-21T02:04:02.338Z,22.3
2018-09-21T02:04:52.691Z,22.3
2018-09-21T02:05:41.842Z,22.3
2018-09-21T02:06:33.387Z,22.3
2018-09-21T02:07:22.383Z,22.3
2018-09-21T02:08:13.129Z,22.3
2018-09-21T02:09:02.468Z,22.3
2018-09-21T02:09:52.708Z,22.3
2018-09-21T02:10:42.798Z,22.3
2018-09-21T02:11:32.556Z,22.3
2018-09-21T02:12:21.228Z,22.3
2018-09-21T02:13:12.938Z,22.3
2018-09-21T02:14:02.761Z,22.2
2018-09-21T02:14:53.178Z,22.2
2018-09-21T02:15:43.496Z,22.2
2018-09-21T02:16:32.933Z,22.2
2018-09-21T02:17:23.273Z,22.2
2018-09-21T02:18:13.102Z,22.2
2018-09-21T02:19:03.463Z,22.2
2018-09-21T02:19:53.212Z,22.2
2018-09-21T02:20:43.285Z,22.2
2018-09-21T02:21:33.367Z,22.2
2018-09-21T02:22:24.195Z,22.2
2018-09-21T02:23:14.083Z,22.2
2018-09-21T02:24:03.820Z,22.1
2018-09-21T02:24:53.885Z,22.1
2018-09-21T02:25:43.893Z,22.1
2018-09-21T02:26:33.970Z,22.1
2018-09-21T02:27:24.052Z,22.1
2018-09-21T02:28:14.119Z,22.1
2018-09-21T02:29:04.449Z,22.1
2018-09-21T02:29:53.899Z,22.1
2018-09-21T02:30:44.327Z,22.1
2018-09-21T02:31:33.892Z,22.1
2018-09-21T02:32:25.032Z,22.1
2018-09-21T02:33:14.565Z,22.1
2018-09-21T02:34:04.907Z,22.1
2018-09-21T02:34:54.374Z,22.1
2018-09-21T02:35:44.161Z,22.1
2018-09-21T02:36:34.480Z,22.1
2018-09-21T02:37:24.534Z,22.1
2018-09-21T02:38:14.830Z,22.1
2018-09-21T02:39:04.675Z,22.1
2018-09-21T02:39:55.251Z,22.1
2018-09-21T02:40:45.333Z,22.1
2018-09-21T02:41:36.215Z,22.1
2018-09-21T02:42:25.486Z,22.1
2018-09-21T02:43:15.264Z,22.1
2018-09-21T02:44:05.051Z,22.1
2018-09-21T02:44:54.508Z,22.1
2018-09-21T02:45:45.696Z,22.1
2018-09-21T02:46:34.961Z,22.1
2018-09-21T02:47:25.577Z,22
2018-09-21T02:48:15.369Z,22.1
2018-09-21T02:49:04.898Z,22
2018-09-21T02:49:56.039Z,22
2018-09-21T02:50:45.809Z,22
2018-09-21T02:51:36.485Z,22
2018-09-21T02:52:25.691Z,22
2018-09-21T02:53:14.853Z,22
2018-09-21T02:54:06.181Z,22
2018-09-21T02:54:56.384Z,22
2018-09-21T02:55:45.607Z,22
2018-09-21T02:56:35.944Z,22
2018-09-21T02:57:26.669Z,22
2018-09-21T02:58:16.341Z,22
2018-09-21T02:59:06.674Z,22
2018-09-21T02:59:56.806Z,22
2018-09-21T03:00:47.892Z,22
2018-09-21T03:01:36.348Z,22
2018-09-21T03:02:27.051Z,22
2018-09-21T03:03:16.459Z,21.9
2018-09-21T03:04:07.328Z,21.9
2018-09-21T03:04:56.626Z,21.9
2018-09-21T03:05:46.618Z,22
2018-09-21T03:06:37.263Z,21.9
2018-09-21T03:07:26.225Z,21.9
2018-09-21T03:08:17.138Z,21.9
2018-09-21T03:09:07.470Z,21.9
2018-09-21T03:09:56.729Z,21.9
2018-09-21T03:10:47.228Z,21.9
2018-09-21T03:11:37.628Z,21.9
2018-09-21T03:12:27.098Z,21.9
2018-09-21T03:13:18.480Z,21.9
2018-09-21T03:14:07.815Z,21.9
2018-09-21T03:14:58.163Z,21.9
2018-09-21T03:15:47.115Z,21.9
2018-09-21T03:16:37.466Z,21.9
2018-09-21T03:17:28.561Z,21.9
2018-09-21T03:18:17.693Z,21.9
2018-09-21T03:19:08.092Z,21.9
2018-09-21T03:19:58.172Z,21.9
2018-09-21T03:20:48.109Z,21.9
2018-09-21T03:21:37.927Z,21.9
2018-09-21T03:22:28.425Z,21.9
2018-09-21T03:23:18.287Z,21.9
2018-09-21T03:24:08.286Z,21.9
2018-09-21T03:24:58.646Z,21.9
2018-09-21T03:25:48.510Z,21.9
2018-09-21T03:26:37.920Z,21.9
2018-09-21T03:27:28.884Z,21.9
2018-09-21T03:28:18.302Z,21.9
2018-09-21T03:29:08.410Z,21.9
2018-09-21T03:29:59.037Z,21.9
2018-09-21T03:30:49.529Z,21.9
2018-09-21T03:31:39.172Z,21.9
2018-09-21T03:32:28.692Z,21.9
2018-09-21T03:33:19.269Z,21.9
2018-09-21T03:34:09.083Z,21.9
2018-09-21T03:34:58.941Z,21.9
2018-09-21T03:35:49.528Z,21.9
2018-09-21T03:36:39.516Z,21.9
2018-09-21T03:37:29.585Z,21.9
2018-09-21T03:38:19.354Z,21.9
2018-09-21T03:39:09.411Z,21.9
2018-09-21T03:39:59.181Z,21.8
2018-09-21T03:40:49.434Z,21.9
2018-09-21T03:41:39.883Z,21.9
2018-09-21T03:42:29.926Z,21.8
2018-09-21T03:43:19.723Z,21.8
2018-09-21T03:44:09.741Z,21.8
2018-09-21T03:44:59.573Z,21.8
2018-09-21T03:45:49.616Z,21.8
2018-09-21T03:46:39.398Z,21.8
2018-09-21T03:47:30.066Z,21.8
2018-09-21T03:48:20.083Z,21.8
2018-09-21T03:49:10.468Z,21.8
2018-09-21T03:50:00.218Z,21.8
2018-09-21T03:50:50.253Z,21.8
2018-09-21T03:51:40.333Z,21.8
2018-09-21T03:52:30.405Z,21.8
2018-09-21T03:53:19.607Z,21.8
2018-09-21T03:54:10.533Z,21.8
2018-09-21T03:55:00.600Z,21.8
2018-09-21T03:55:50.490Z,21.8
2018-09-21T03:56:41.000Z,21.8
2018-09-21T03:57:30.815Z,21.8
2018-09-21T03:58:20.558Z,21.8
2018-09-21T03:59:10.932Z,21.8
2018-09-21T04:00:01.003Z,21.8
2018-09-21T04:00:51.634Z,21.8
2018-09-21T04:01:41.679Z,21.8
2018-09-21T04:02:31.103Z,21.8
2018-09-21T04:03:20.962Z,21.8
2018-09-21T04:04:11.297Z,21.8
2018-09-21T04:05:01.612Z,21.8
2018-09-21T04:05:51.915Z,21.7
2018-09-21T04:06:41.556Z,21.8
2018-09-21T04:07:31.347Z,21.7
2018-09-21T04:08:21.296Z,21.8
2018-09-21T04:09:11.642Z,21.8
2018-09-21T04:10:01.424Z,21.7
2018-09-21T04:10:52.102Z,21.7
2018-09-21T04:11:42.108Z,21.7
2018-09-21T04:12:31.928Z,21.7
2018-09-21T04:13:21.661Z,21.7
2018-09-21T04:14:11.754Z,21.7
2018-09-21T04:15:01.505Z,21.7
2018-09-21T04:15:51.635Z,21.7
2018-09-21T04:16:42.283Z,21.7
2018-09-21T04:17:32.319Z,21.7
2018-09-21T04:18:22.606Z,21.6
2018-09-21T04:19:12.114Z,21.7
2018-09-21T04:20:02.448Z,21.7
2018-09-21T04:20:52.528Z,21.6
2018-09-21T04:21:42.533Z,21.6
2018-09-21T04:22:32.613Z,21.6
2018-09-21T04:23:22.425Z,21.6
2018-09-21T04:24:13.098Z,21.6
2018-09-21T04:25:02.243Z,21.6
2018-09-21T04:25:53.188Z,21.6
2018-09-21T04:26:43.175Z,21.6
2018-09-21T04:27:33.646Z,21.6
2018-09-21T04:28:22.827Z,21.6
2018-09-21T04:29:13.671Z,21.6
2018-09-21T04:30:02.697Z,21.6
2018-09-21T04:30:53.236Z,21.6
2018-09-21T04:31:43.325Z,21.6
2018-09-21T04:32:33.656Z,21.6
2018-09-21T04:33:23.135Z,21.6
2018-09-21T04:34:13.568Z,21.6
2018-09-21T04:35:03.865Z,21.6
2018-09-21T04:35:53.676Z,21.6
2018-09-21T04:36:43.747Z,21.6
2018-09-21T04:37:34.095Z,21.6
2018-09-21T04:38:23.812Z,21.6
2018-09-21T04:39:14.215Z,21.6
2018-09-21T04:40:03.937Z,21.6
2018-09-21T04:40:54.303Z,21.6
2018-09-21T04:41:44.829Z,21.6
2018-09-21T04:42:34.374Z,21.6
2018-09-21T04:43:24.556Z,21.6
2018-09-21T04:44:14.518Z,21.6
2018-09-21T04:45:03.556Z,21.6
2018-09-21T04:45:55.648Z,21.6
2018-09-21T04:46:44.509Z,21.6
2018-09-21T04:47:34.490Z,21.6
2018-09-21T04:48:24.524Z,21.6
2018-09-21T04:49:14.472Z,21.6
2018-09-21T04:50:05.193Z,21.6
2018-09-21T04:50:55.058Z,21.6
2018-09-21T04:51:43.935Z,21.6
2018-09-21T04:52:35.205Z,21.6
2018-09-21T04:53:24.461Z,21.6
2018-09-21T04:54:14.792Z,21.6
2018-09-21T04:55:04.631Z,21.6
2018-09-21T04:55:54.878Z,21.6
2018-09-21T04:56:45.540Z,21.6
2018-09-21T04:57:34.984Z,21.6
2018-09-21T04:58:25.576Z,21.6
2018-09-21T04:59:15.358Z,21.6
2018-09-21T05:00:05.720Z,21.6
2018-09-21T05:00:55.505Z,21.6
2018-09-21T05:01:45.540Z,21.6
2018-09-21T05:02:35.898Z,21.6
2018-09-21T05:03:25.076Z,21.6
2018-09-21T05:04:15.427Z,21.6
2018-09-21T05:05:06.071Z,21.6
2018-09-21T05:05:56.135Z,21.7
2018-09-21T05:06:45.488Z,21.6
2018-09-21T05:07:34.887Z,21.7
2018-09-21T05:25:15.722Z,21.8
2018-09-21T05:26:06.284Z,21.8
2018-09-21T05:26:56.687Z,21.8
2018-09-21T05:27:46.787Z,21.8
2018-09-21T05:28:36.192Z,21.9
2018-09-21T05:29:26.235Z,21.9
2018-09-21T05:30:16.307Z,21.9
2018-09-21T05:31:06.378Z,21.9
2018-09-21T05:31:57.217Z,21.9
2018-09-21T05:32:47.071Z,21.9
2018-09-21T05:33:36.299Z,21.9
2018-09-21T05:34:28.421Z,21.9
2018-09-21T05:35:19.229Z,21.9
2018-09-21T05:36:07.079Z,21.9
2018-09-21T05:36:57.058Z,21.9
2018-09-21T05:37:47.097Z,21.9
2018-09-21T05:38:36.900Z,21.9
2018-09-21T05:39:27.011Z,21.9
2018-09-21T05:40:17.100Z,21.9
2018-09-21T05:41:06.828Z,21.9
2018-09-21T05:41:56.848Z,21.9
2018-09-21T05:42:47.225Z,21.9
2018-09-21T05:43:37.388Z,21.9
2018-09-21T05:44:26.550Z,21.9
2018-09-21T05:45:17.456Z,22
2018-09-21T05:46:07.248Z,22
2018-09-21T05:46:58.279Z,22
2018-09-21T05:47:47.963Z,22
2018-09-21T05:48:38.331Z,22
2018-09-21T05:49:27.453Z,22
2018-09-21T05:50:18.166Z,22
2018-09-21T05:51:07.315Z,22
2018-09-21T05:51:57.688Z,22
2018-09-21T05:52:48.045Z,22
2018-09-21T05:53:37.548Z,22
2018-09-21T05:54:27.706Z,22.1
2018-09-21T05:55:18.213Z,22
2018-09-21T05:56:09.107Z,22
2018-09-21T05:56:58.307Z,22
2018-09-21T05:57:47.413Z,22.1
2018-09-21T05:58:38.251Z,22.1
2018-09-21T05:59:27.503Z,22.1
2018-09-21T06:00:17.944Z,22.1
2018-09-21T06:01:08.229Z,22.1
2018-09-21T06:01:57.916Z,22.1
2018-09-21T06:02:48.056Z,22.1
2018-09-21T06:03:38.398Z,22.1
2018-09-21T06:04:28.894Z,22.1
2018-09-21T06:05:18.729Z,22.1
2018-09-21T06:06:08.836Z,22.1
2018-09-21T06:06:59.361Z,22.1
2018-09-21T06:07:50.376Z,22.1
2018-09-21T06:08:39.480Z,22.1
2018-09-21T06:09:29.588Z,22.1
2018-09-21T06:10:18.775Z,22.1
2018-09-21T06:11:09.090Z,22.1
2018-09-21T06:11:59.159Z,22.1
2018-09-21T06:12:49.842Z,22.1
2018-09-21T06:13:39.312Z,22.1
2018-09-21T06:14:30.058Z,22.1
2018-09-21T06:15:19.599Z,22.1
2018-09-21T06:16:09.269Z,22.1
2018-09-21T06:16:59.277Z,22.1
2018-09-21T06:17:50.179Z,22.1
2018-09-21T06:18:39.927Z,22
2018-09-21T06:19:30.565Z,22
2018-09-21T06:20:20.328Z,22
2018-09-21T06:21:10.990Z,22
2018-09-21T06:21:59.996Z,22
2018-09-21T06:22:52.115Z,22
2018-09-21T06:23:40.958Z,22
2018-09-21T06:24:31.004Z,22
2018-09-21T06:25:20.741Z,22
2018-09-21T06:26:11.318Z,22
2018-09-21T06:27:01.166Z,22
2018-09-21T06:27:50.627Z,22
2018-09-21T06:28:41.055Z,22
2018-09-21T06:29:31.069Z,22.1
2018-09-21T06:30:20.853Z,22.1
2018-09-21T06:31:10.956Z,22.1
2018-09-21T06:32:01.345Z,22.1
2018-09-21T06:32:51.071Z,22.1
2018-09-21T06:33:41.366Z,22.1
2018-09-21T06:34:31.152Z,22.1
2018-09-21T06:35:21.755Z,22.1
2018-09-21T06:36:11.255Z,22.1
2018-09-21T06:37:01.826Z,22.1
2018-09-21T06:37:51.335Z,22.1
2018-09-21T06:38:41.735Z,22.1
2018-09-21T06:39:31.795Z,22.1
2018-09-21T06:40:21.328Z,22.1
2018-09-21T06:41:12.538Z,22.1
2018-09-21T06:42:01.726Z,22.2
2018-09-21T06:42:51.250Z,22.2
2018-09-21T06:43:42.125Z,22.2
2018-09-21T06:44:32.614Z,22.2
2018-09-21T06:45:21.973Z,22.2
2018-09-21T06:46:11.724Z,22.2
2018-09-21T06:47:02.030Z,22.2
2018-09-21T06:47:52.090Z,22.3
2018-09-21T06:48:42.455Z,22.2
2018-09-21T06:49:32.194Z,22.2
2018-09-21T06:50:22.572Z,22.2
2018-09-21T06:51:12.662Z,22.3
2018-09-21T06:52:02.414Z,22.3
2018-09-21T06:52:52.739Z,22.3
2018-09-21T06:53:41.715Z,22.3
2018-09-21T06:54:32.992Z,22.3
2018-09-21T06:55:22.395Z,22.3
2018-09-21T06:56:11.902Z,22.3
2018-09-21T06:57:02.244Z,22.3
2018-09-21T06:57:52.867Z,22.3
2018-09-21T06:58:43.273Z,22.3
2018-09-21T06:59:33.267Z,22.3
2018-09-21T07:00:22.779Z,22.3
2018-09-21T07:01:12.567Z,22.3
2018-09-21T07:02:05.031Z,22.3
2018-09-21T07:02:53.530Z,22.3
2018-09-21T07:03:43.553Z,22.3
2018-09-21T07:04:33.639Z,22.3
2018-09-21T07:05:23.531Z,22.3
2018-09-21T07:06:13.207Z,22.3
2018-09-21T07:07:04.138Z,22.3
2018-09-21T07:07:53.681Z,22.3
2018-09-21T07:08:44.213Z,22.3
2018-09-21T07:09:33.765Z,22.3
2018-09-21T07:10:24.136Z,22.3
2018-09-21T07:11:14.491Z,22.3
2018-09-21T07:12:04.331Z,22.3
2018-09-21T07:12:53.793Z,22.3
2018-09-21T07:13:42.979Z,22.3
2018-09-21T07:14:33.871Z,22.3
2018-09-21T07:15:24.453Z,22.4
2018-09-21T07:16:14.308Z,22.3
2018-09-21T07:17:04.455Z,22.3
2018-09-21T07:17:53.864Z,22.4
2018-09-21T07:18:44.261Z,22.4
2018-09-21T07:19:33.951Z,22.4
2018-09-21T07:20:24.290Z,22.4
2018-09-21T07:21:14.629Z,22.4
2018-09-21T07:22:04.959Z,22.4
2018-09-21T07:22:55.289Z,22.4
2018-09-21T07:23:45.183Z,22.4
2018-09-21T07:24:34.353Z,22.4
2018-09-21T07:25:25.209Z,22.4
2018-09-21T07:26:15.037Z,22.4
2018-09-21T07:27:05.371Z,22.4
2018-09-21T07:27:56.119Z,22.4
2018-09-21T07:28:45.471Z,22.4
2018-09-21T07:29:35.537Z,22.4
2018-09-21T07:30:25.600Z,22.4
2018-09-21T07:31:16.350Z,22.4
2018-09-21T07:32:05.415Z,22.4
2018-09-21T07:32:55.342Z,22.4
2018-09-21T07:33:45.577Z,22.4
2018-09-21T07:34:35.912Z,22.4
2018-09-21T07:35:25.503Z,22.4
2018-09-21T07:36:14.924Z,22.4
2018-09-21T07:37:05.862Z,22.4
2018-09-21T07:37:55.616Z,22.4
2018-09-21T07:38:46.290Z,22.4
2018-09-21T07:39:36.579Z,22.4
2018-09-21T07:40:26.110Z,22.5
2018-09-21T07:41:16.162Z,22.5
2018-09-21T07:42:06.151Z,22.4
2018-09-21T07:42:56.861Z,22.4
2018-09-21T07:43:45.535Z,22.4
2018-09-21T07:44:36.863Z,22.5
2018-09-21T07:45:25.934Z,22.4
2018-09-21T07:46:16.797Z,22.4
2018-09-21T07:47:06.566Z,22.4
2018-09-21T07:47:56.719Z,22.4
2018-09-21T07:48:47.305Z,22.4
2018-09-21T07:49:36.211Z,22.4
2018-09-21T07:50:27.675Z,22.4
2018-09-21T07:51:16.891Z,22.4
2018-09-21T07:52:07.517Z,22.4
2018-09-21T07:52:56.450Z,22.4
2018-09-21T07:53:47.071Z,22.4
2018-09-21T07:54:37.549Z,22.4
2018-09-21T07:55:27.473Z,22.4
2018-09-21T07:56:17.534Z,22.4
2018-09-21T07:57:07.558Z,22.4
2018-09-21T07:57:57.671Z,22.4
2018-09-21T07:58:47.141Z,22.4
2018-09-21T07:59:37.498Z,22.4
2018-09-21T08:00:27.555Z,22.4
2018-09-21T08:01:18.028Z,22.4
2018-09-21T08:02:08.100Z,22.4
2018-09-21T08:02:58.388Z,22.4
2018-09-21T08:03:47.803Z,22.3
2018-09-21T08:04:37.926Z,22.4
2018-09-21T08:05:27.975Z,22.3
2018-09-21T08:06:17.768Z,22.3
2018-09-21T08:07:08.868Z,22.4
2018-09-21T08:07:58.680Z,22.3
2018-09-21T08:08:48.747Z,22.3
2018-09-21T08:09:38.825Z,22.3
2018-09-21T08:10:28.440Z,22.3
2018-09-21T08:11:18.667Z,22.3
2018-09-21T08:12:08.990Z,22.3
2018-09-21T08:12:59.540Z,22.3
2018-09-21T08:13:48.863Z,22.3
2018-09-21T08:14:38.922Z,22.3
2018-09-21T08:15:28.157Z,22.3
2018-09-21T08:16:18.218Z,22.3
2018-09-21T08:17:09.098Z,22.3
2018-09-21T08:17:58.925Z,22.3
2018-09-21T08:18:49.626Z,22.3
2018-09-21T08:19:39.800Z,22.3
2018-09-21T08:20:29.685Z,22.3
2018-09-21T08:21:19.157Z,22.3
2018-09-21T08:22:09.800Z,22.3
2018-09-21T08:22:58.712Z,22.3
2018-09-21T08:23:48.990Z,22.3
2018-09-21T08:24:39.125Z,22.3
2018-09-21T08:25:29.490Z,22.3
2018-09-21T08:26:19.564Z,22.3
2018-09-21T08:27:09.935Z,22.3
2018-09-21T08:27:59.659Z,22.3
2018-09-21T08:28:49.847Z,22.4
2018-09-21T08:29:38.984Z,22.3
2018-09-21T08:30:29.559Z,22.4
2018-09-21T08:31:19.512Z,22.4
2018-09-21T08:32:09.946Z,22.4
2018-09-21T08:32:59.712Z,22.4
2018-09-21T08:33:50.618Z,22.4
2018-09-21T08:34:40.303Z,22.4
2018-09-21T08:35:29.999Z,22.4
2018-09-21T08:36:20.876Z,22.4
2018-09-21T08:37:11.032Z,22.4
2018-09-21T08:38:00.740Z,22.4
2018-09-21T08:38:50.595Z,22.4
2018-09-21T08:39:40.508Z,22.4
2018-09-21T08:40:30.606Z,22.4
2018-09-21T08:41:20.412Z,22.4
2018-09-21T08:42:11.495Z,22.4
2018-09-21T08:43:01.038Z,22.4
2018-09-21T08:43:51.126Z,22.5
2018-09-21T08:44:39.959Z,22.4
2018-09-21T08:45:32.390Z,22.5
2018-09-21T08:46:20.596Z,22.5
2018-09-21T08:47:11.327Z,22.5
2018-09-21T08:48:01.175Z,22.5
2018-09-21T08:48:51.345Z,22.5
2018-09-21T08:49:41.568Z,22.5
2018-09-21T08:50:31.947Z,22.5
2018-09-21T08:51:21.710Z,22.5
2018-09-21T08:52:11.747Z,22.5
2018-09-21T08:53:00.317Z,22.5
2018-09-21T08:53:51.458Z,22.6
2018-09-21T08:54:42.265Z,22.6
2018-09-21T08:55:32.040Z,22.6
2018-09-21T08:56:22.604Z,22.5
2018-09-21T08:57:11.933Z,22.6
2018-09-21T08:58:02.513Z,22.6
2018-09-21T08:58:51.720Z,22.6
2018-09-21T08:59:41.795Z,22.6
2018-09-21T09:00:31.873Z,22.6
2018-09-21T09:01:22.338Z,22.6
2018-09-21T09:02:12.930Z,22.6
2018-09-21T09:03:04.087Z,22.6
2018-09-21T09:03:53.243Z,22.6
2018-09-21T09:04:43.457Z,22.6
2018-09-21T09:05:32.936Z,22.6
2018-09-21T09:06:23.291Z,22.6
2018-09-21T09:07:13.862Z,22.6
2018-09-21T09:08:03.036Z,22.6
2018-09-21T09:08:53.297Z,22.6
2018-09-21T09:09:42.789Z,22.6
2018-09-21T09:10:32.318Z,22.6
2018-09-21T09:11:22.975Z,22.6
2018-09-21T09:12:13.054Z,22.6
2018-09-21T09:13:02.875Z,22.6
2018-09-21T09:13:53.037Z,22.6
2018-09-21T09:14:42.927Z,22.6
2018-09-21T09:15:33.603Z,22.6
2018-09-21T09:16:23.571Z,22.6
2018-09-21T09:17:13.518Z,22.6
2018-09-21T09:18:03.169Z,22.6
2018-09-21T09:18:53.542Z,22.6
2018-09-21T09:19:43.308Z,22.6
2018-09-21T09:20:33.491Z,22.6
2018-09-21T09:21:23.951Z,22.6
2018-09-21T09:22:14.373Z,22.6
2018-09-21T09:23:04.499Z,22.6
2018-09-21T09:40:01.131Z,22.7
2018-09-21T09:40:50.932Z,22.7
2018-09-21T09:41:41.612Z,22.7
2018-09-21T09:42:31.385Z,22.8
2018-09-21T09:43:22.298Z,22.8
2018-09-21T09:44:11.999Z,22.8
2018-09-21T09:45:02.606Z,22.8
2018-09-21T09:45:51.097Z,22.8
2018-09-21T09:46:41.632Z,22.8
2018-09-21T09:47:31.962Z,22.8
2018-09-21T09:48:22.604Z,22.8
2018-09-21T09:49:13.174Z,22.8
2018-09-21T09:50:02.235Z,22.8
2018-09-21T09:50:51.366Z,22.8
2018-09-21T09:51:42.383Z,22.8
2018-09-21T09:52:32.079Z,22.8
2018-09-21T09:53:22.429Z,22.8
2018-09-21T09:54:12.484Z,22.8
2018-09-21T09:55:03.300Z,22.8
2018-09-21T09:55:52.036Z,22.8
2018-09-21T09:56:42.427Z,22.8
2018-09-21T09:57:32.729Z,22.8
2018-09-21T09:58:22.496Z,22.8
2018-09-21T09:59:12.584Z,22.8
2018-09-21T10:00:01.864Z,22.8
2018-09-21T10:00:52.574Z,22.8
2018-09-21T10:01:43.039Z,22.8
2018-09-21T10:02:32.556Z,22.8
2018-09-21T10:03:22.463Z,22.8
2018-09-21T10:04:13.277Z,22.8
2018-09-21T10:05:02.784Z,22.8
2018-09-21T10:05:52.524Z,22.8
2018-09-21T10:06:42.879Z,22.8
2018-09-21T10:07:32.415Z,22.8
2018-09-21T10:08:22.975Z,22.8
2018-09-21T10:09:13.378Z,22.8
2018-09-21T10:10:03.695Z,22.8
2018-09-21T10:10:53.815Z,22.8
2018-09-21T10:11:43.493Z,22.8
2018-09-21T10:12:33.328Z,22.8
2018-09-21T10:13:23.433Z,22.8
2018-09-21T10:14:13.430Z,22.8
2018-09-21T10:15:03.521Z,22.8
2018-09-21T10:15:53.423Z,22.8
2018-09-21T10:16:43.443Z,22.9
2018-09-21T10:17:33.500Z,22.9
2018-09-21T10:18:23.558Z,22.8
2018-09-21T10:19:13.884Z,22.8
2018-09-21T10:20:03.480Z,22.9
2018-09-21T10:20:54.875Z,22.8
2018-09-21T10:21:43.621Z,22.9
2018-09-21T10:22:34.080Z,22.8
2018-09-21T10:23:23.917Z,22.8
2018-09-21T10:24:15.528Z,22.8
2018-09-21T10:25:04.545Z,22.9
2018-09-21T10:25:54.927Z,22.9
2018-09-21T10:26:45.030Z,22.8
2018-09-21T10:27:39.058Z,22.9
2018-09-21T10:28:28.629Z,22.8
2018-09-21T10:29:15.030Z,22.9
2018-09-21T10:30:05.349Z,22.9
2018-09-21T10:30:55.375Z,22.9
2018-09-21T10:31:45.148Z,22.9
2018-09-21T10:32:34.557Z,22.9
2018-09-21T10:33:25.734Z,22.9
2018-09-21T10:34:15.584Z,22.9
2018-09-21T10:35:05.419Z,22.9
2018-09-21T10:35:55.661Z,22.9
2018-09-21T10:36:45.401Z,22.9
2018-09-21T10:37:34.706Z,22.9
2018-09-21T10:38:25.573Z,22.9
2018-09-21T10:39:16.765Z,22.9
2018-09-21T10:40:08.026Z,22.9
2018-09-21T10:40:56.038Z,22.9
2018-09-21T10:41:45.753Z,22.9
2018-09-21T10:42:36.867Z,22.9
2018-09-21T10:43:25.411Z,22.9
2018-09-21T10:44:16.030Z,22.9
2018-09-21T10:45:06.398Z,22.9
2018-09-21T10:45:56.396Z,22.9
2018-09-21T10:46:46.320Z,22.9
2018-09-21T10:47:37.760Z,23
2018-09-21T10:48:25.771Z,23
2018-09-21T10:49:15.883Z,23
2018-09-21T10:50:06.154Z,23
2018-09-21T10:50:58.274Z,23
2018-09-21T10:51:45.890Z,23
2018-09-21T10:52:36.496Z,23
2018-09-21T10:53:26.255Z,23
2018-09-21T10:54:16.498Z,23
2018-09-21T10:55:06.278Z,23
2018-09-21T10:55:56.306Z,23
2018-09-21T10:56:47.775Z,23
2018-09-21T10:57:36.832Z,23.1
2018-09-21T10:58:27.083Z,23
2018-09-21T10:59:16.950Z,23.1
2018-09-21T11:00:06.720Z,23
2018-09-21T11:00:57.556Z,23.1
2018-09-21T11:01:47.245Z,23.1
2018-09-21T11:02:37.135Z,23.1
2018-09-21T11:03:27.279Z,23.1
2018-09-21T11:04:17.821Z,23.1
2018-09-21T11:05:07.362Z,23.1
2018-09-21T11:05:57.915Z,23.1
2018-09-21T11:06:47.645Z,23.1
2018-09-21T11:07:38.024Z,23.1
2018-09-21T11:08:27.789Z,23.1
2018-09-21T11:09:17.949Z,23.1
2018-09-21T11:10:07.954Z,23.1
2018-09-21T11:10:57.493Z,23.1
2018-09-21T11:11:48.213Z,23.1
2018-09-21T11:12:37.930Z,23.1
2018-09-21T11:13:28.500Z,23.1
2018-09-21T11:14:18.089Z,23.1
2018-09-21T11:15:07.869Z,23.1
2018-09-21T11:15:58.406Z,23.1
2018-09-21T11:16:48.273Z,23.1
2018-09-21T11:17:38.539Z,23.1
2018-09-21T11:18:28.578Z,23.1
2018-09-21T11:19:18.075Z,23.1
2018-09-21T11:20:08.457Z,23.1
2018-09-21T11:20:58.776Z,23.1
2018-09-21T11:21:49.176Z,23.1
2018-09-21T11:22:38.338Z,23.1
2018-09-21T11:23:28.375Z,23.1
2018-09-21T11:24:18.848Z,23.1
2018-09-21T11:25:09.126Z,23.1
2018-09-21T11:25:59.168Z,23.1
2018-09-21T11:26:49.228Z,23.1
2018-09-21T11:27:38.781Z,23.1
2018-09-21T11:28:29.353Z,23.1
2018-09-21T11:29:18.928Z,23.1
2018-09-21T11:30:08.414Z,23.1
2018-09-21T11:30:59.848Z,23.1
2018-09-21T11:31:49.098Z,23.1
2018-09-21T11:32:39.638Z,23.1
2018-09-21T11:33:30.045Z,23.1
2018-09-21T11:34:19.547Z,23.1
2018-09-21T11:35:09.892Z,23.1
2018-09-21T11:35:59.925Z,23.1
2018-09-21T11:36:50.008Z,23.1
2018-09-21T11:37:39.898Z,23.1
2018-09-21T11:38:29.602Z,23.1
2018-09-21T11:39:18.561Z,23.1
2018-09-21T11:40:10.266Z,23.1
2018-09-21T11:41:00.631Z,23.1
2018-09-21T11:41:49.994Z,23.1
2018-09-21T11:42:40.424Z,23.1
2018-09-21T11:43:30.582Z,23.1
2018-09-21T11:44:20.344Z,23.1
2018-09-21T11:45:09.560Z,23.1
2018-09-21T11:46:00.414Z,23.1
2018-09-21T11:46:53.227Z,23.1
2018-09-21T11:47:42.448Z,23.1
2018-09-21T11:48:31.161Z,23.1
2018-09-21T11:49:21.234Z,23.1
2018-09-21T11:50:10.729Z,23.1
2018-09-21T11:51:01.424Z,23.1
2018-09-21T11:51:51.116Z,23.1
2018-09-21T11:52:41.441Z,23.1
2018-09-21T11:53:31.522Z,23.1
2018-09-21T11:54:21.311Z,23.1
2018-09-21T11:55:10.548Z,23.1
2018-09-21T11:56:01.491Z,23.1
2018-09-21T11:56:51.784Z,23.1
2018-09-21T11:57:41.576Z,23.1
2018-09-21T11:58:31.369Z,23.1
2018-09-21T11:59:22.028Z,23.1
2018-09-21T12:00:11.771Z,23.1
2018-09-21T12:01:01.516Z,23.1
2018-09-21T12:01:52.280Z,23.1
2018-09-21T12:02:41.748Z,23.1
2018-09-21T12:03:31.720Z,23.1
2018-09-21T12:04:21.932Z,23.1
2018-09-21T12:05:11.131Z,23.1
2018-09-21T12:06:01.431Z,23.1
2018-09-21T12:06:52.586Z,23.1
2018-09-21T12:07:42.357Z,23.1
2018-09-21T12:08:32.333Z,23.1
2018-09-21T12:09:22.741Z,23.1
2018-09-21T12:10:12.776Z,23.1
2018-09-21T12:11:02.576Z,23.1
2018-09-21T12:11:52.883Z,23.1
2018-09-21T12:12:42.416Z,23.1
2018-09-21T12:13:33.068Z,23.1
2018-09-21T12:14:21.730Z,23.1
2018-09-21T12:15:12.905Z,23.1
2018-09-21T12:16:04.301Z,23.1
2018-09-21T12:16:53.772Z,23.1
2018-09-21T12:17:43.403Z,23.1
2018-09-21T12:18:32.948Z,23.1
2018-09-21T12:19:23.480Z,23.1
2018-09-21T12:20:13.560Z,23.1